sensor_id;sensor_type;location;lat;lon;timestamp;P1;durP1;ratioP1;P2;durP2;ratioP2
12163;SDS011;6145;50.192;10.064;2023-05-07T00:01:41;3.80;;;2.87;;
12163;SDS011;6145;50.192;10.064;2023-05-07T00:04:08;2.63;;;2.33;;
12163;SDS011;6145;50.192;10.064;2023-05-07T00:06:35;3.17;;;2.40;;
12163;SDS011;6145;50.192;10.064;2023-05-07T00:09:02;3.13;;;2.60;;
12163;SDS011;6145;50.192;10.064;2023-05-07T00:11:29;2.97;;;2.30;;
12163;SDS011;6145;50.192;10.064;2023-05-07T00:13:59;2.53;;;2.33;;
12163;SDS011;6145;50.192;10.064;2023-05-07T00:16:26;4.77;;;2.60;;
12163;SDS011;6145;50.192;10.064;2023-05-07T00:18:53;4.67;;;2.30;;
12163;SDS011;6145;50.192;10.064;2023-05-07T00:21:22;3.97;;;2.70;;
12163;SDS011;6145;50.192;10.064;2023-05-07T00:23:51;2.27;;;2.07;;
12163;SDS011;6145;50.192;10.064;2023-05-07T00:26:18;3.60;;;2.70;;
12163;SDS011;6145;50.192;10.064;2023-05-07T00:28:45;3.47;;;2.33;;
12163;SDS011;6145;50.192;10.064;2023-05-07T00:31:13;2.77;;;2.40;;
12163;SDS011;6145;50.192;10.064;2023-05-07T00:33:40;2.67;;;2.43;;
12163;SDS011;6145;50.192;10.064;2023-05-07T00:36:07;3.03;;;2.20;;
12163;SDS011;6145;50.192;10.064;2023-05-07T00:38:34;3.83;;;2.87;;
12163;SDS011;6145;50.192;10.064;2023-05-07T00:41:01;3.03;;;2.60;;
12163;SDS011;6145;50.192;10.064;2023-05-07T00:43:28;4.77;;;2.60;;
12163;SDS011;6145;50.192;10.064;2023-05-07T00:45:55;3.13;;;2.67;;
12163;SDS011;6145;50.192;10.064;2023-05-07T00:48:24;2.57;;;2.37;;
12163;SDS011;6145;50.192;10.064;2023-05-07T00:50:51;3.33;;;3.03;;
12163;SDS011;6145;50.192;10.064;2023-05-07T00:53:18;3.40;;;2.73;;
12163;SDS011;6145;50.192;10.064;2023-05-07T00:55:46;3.40;;;3.10;;
12163;SDS011;6145;50.192;10.064;2023-05-07T00:58:14;3.13;;;2.73;;
12163;SDS011;6145;50.192;10.064;2023-05-07T01:00:41;4.23;;;3.03;;
12163;SDS011;6145;50.192;10.064;2023-05-07T01:03:08;3.00;;;2.80;;
12163;SDS011;6145;50.192;10.064;2023-05-07T01:05:36;3.40;;;3.10;;
12163;SDS011;6145;50.192;10.064;2023-05-07T01:08:03;3.83;;;3.03;;
12163;SDS011;6145;50.192;10.064;2023-05-07T01:10:31;3.10;;;2.90;;
12163;SDS011;6145;50.192;10.064;2023-05-07T01:12:58;3.37;;;3.07;;
12163;SDS011;6145;50.192;10.064;2023-05-07T01:15:26;3.23;;;2.93;;
12163;SDS011;6145;50.192;10.064;2023-05-07T01:17:53;3.40;;;3.10;;
12163;SDS011;6145;50.192;10.064;2023-05-07T01:20:22;3.77;;;3.40;;
12163;SDS011;6145;50.192;10.064;2023-05-07T01:22:50;4.33;;;3.93;;
12163;SDS011;6145;50.192;10.064;2023-05-07T01:25:20;3.80;;;3.40;;
12163;SDS011;6145;50.192;10.064;2023-05-07T01:27:47;4.23;;;3.83;;
12163;SDS011;6145;50.192;10.064;2023-05-07T01:30:14;4.20;;;3.90;;
12163;SDS011;6145;50.192;10.064;2023-05-07T01:32:45;3.90;;;3.57;;
12163;SDS011;6145;50.192;10.064;2023-05-07T01:35:19;4.40;;;4.00;;
12163;SDS011;6145;50.192;10.064;2023-05-07T01:38:00;4.23;;;3.80;;
12163;SDS011;6145;50.192;10.064;2023-05-07T01:40:29;4.57;;;3.87;;
12163;SDS011;6145;50.192;10.064;2023-05-07T01:42:56;5.07;;;4.37;;
12163;SDS011;6145;50.192;10.064;2023-05-07T01:45:23;5.10;;;4.07;;
12163;SDS011;6145;50.192;10.064;2023-05-07T01:47:51;4.40;;;4.10;;
12163;SDS011;6145;50.192;10.064;2023-05-07T01:50:19;4.77;;;4.37;;
12163;SDS011;6145;50.192;10.064;2023-05-07T01:52:47;5.53;;;5.03;;
12163;SDS011;6145;50.192;10.064;2023-05-07T01:55:17;5.90;;;5.30;;
12163;SDS011;6145;50.192;10.064;2023-05-07T01:57:44;5.73;;;4.53;;
12163;SDS011;6145;50.192;10.064;2023-05-07T02:00:11;5.33;;;4.83;;
12163;SDS011;6145;50.192;10.064;2023-05-07T02:02:39;11.20;;;4.73;;
12163;SDS011;6145;50.192;10.064;2023-05-07T02:05:06;4.63;;;4.23;;
12163;SDS011;6145;50.192;10.064;2023-05-07T02:07:33;6.90;;;4.53;;
12163;SDS011;6145;50.192;10.064;2023-05-07T02:10:00;5.80;;;5.20;;
12163;SDS011;6145;50.192;10.064;2023-05-07T02:12:29;5.60;;;5.10;;
12163;SDS011;6145;50.192;10.064;2023-05-07T02:14:56;5.67;;;5.13;;
12163;SDS011;6145;50.192;10.064;2023-05-07T02:17:23;7.30;;;5.97;;
12163;SDS011;6145;50.192;10.064;2023-05-07T02:19:50;5.70;;;5.20;;
12163;SDS011;6145;50.192;10.064;2023-05-07T02:22:17;6.80;;;6.20;;
12163;SDS011;6145;50.192;10.064;2023-05-07T02:24:46;6.47;;;5.60;;
12163;SDS011;6145;50.192;10.064;2023-05-07T02:27:16;7.33;;;6.73;;
12163;SDS011;6145;50.192;10.064;2023-05-07T02:29:44;6.70;;;6.10;;
12163;SDS011;6145;50.192;10.064;2023-05-07T02:32:11;6.90;;;6.30;;
12163;SDS011;6145;50.192;10.064;2023-05-07T02:34:38;8.13;;;5.13;;
12163;SDS011;6145;50.192;10.064;2023-05-07T02:37:04;6.50;;;5.90;;
12163;SDS011;6145;50.192;10.064;2023-05-07T02:39:31;7.83;;;7.10;;
12163;SDS011;6145;50.192;10.064;2023-05-07T02:41:58;6.97;;;6.37;;
12163;SDS011;6145;50.192;10.064;2023-05-07T02:44:26;7.33;;;6.67;;
12163;SDS011;6145;50.192;10.064;2023-05-07T02:46:57;7.00;;;6.13;;
12163;SDS011;6145;50.192;10.064;2023-05-07T02:49:24;7.17;;;6.47;;
12163;SDS011;6145;50.192;10.064;2023-05-07T02:51:51;6.97;;;6.13;;
12163;SDS011;6145;50.192;10.064;2023-05-07T02:54:18;7.67;;;6.97;;
12163;SDS011;6145;50.192;10.064;2023-05-07T02:56:45;8.73;;;7.00;;
12163;SDS011;6145;50.192;10.064;2023-05-07T02:59:12;7.53;;;6.80;;
12163;SDS011;6145;50.192;10.064;2023-05-07T03:01:39;8.10;;;7.33;;
12163;SDS011;6145;50.192;10.064;2023-05-07T03:04:09;7.83;;;7.13;;
12163;SDS011;6145;50.192;10.064;2023-05-07T03:06:40;7.63;;;6.93;;
12163;SDS011;6145;50.192;10.064;2023-05-07T03:09:07;7.83;;;7.13;;
12163;SDS011;6145;50.192;10.064;2023-05-07T03:11:34;7.93;;;7.10;;
12163;SDS011;6145;50.192;10.064;2023-05-07T03:14:01;7.13;;;6.47;;
12163;SDS011;6145;50.192;10.064;2023-05-07T03:16:28;7.60;;;6.90;;
12163;SDS011;6145;50.192;10.064;2023-05-07T03:18:55;6.87;;;6.17;;
12163;SDS011;6145;50.192;10.064;2023-05-07T03:21:23;7.17;;;6.57;;
12163;SDS011;6145;50.192;10.064;2023-05-07T03:23:52;6.30;;;5.80;;
12163;SDS011;6145;50.192;10.064;2023-05-07T03:26:18;7.97;;;7.10;;
12163;SDS011;6145;50.192;10.064;2023-05-07T03:28:46;8.63;;;7.27;;
12163;SDS011;6145;50.192;10.064;2023-05-07T03:31:13;8.23;;;7.40;;
12163;SDS011;6145;50.192;10.064;2023-05-07T03:33:50;8.37;;;7.43;;
12163;SDS011;6145;50.192;10.064;2023-05-07T03:36:18;8.23;;;7.37;;
12163;SDS011;6145;50.192;10.064;2023-05-07T03:38:48;9.40;;;8.60;;
12163;SDS011;6145;50.192;10.064;2023-05-07T03:41:16;10.27;;;9.20;;
12163;SDS011;6145;50.192;10.064;2023-05-07T03:43:43;9.63;;;8.63;;
12163;SDS011;6145;50.192;10.064;2023-05-07T03:46:10;8.77;;;7.97;;
12163;SDS011;6145;50.192;10.064;2023-05-07T03:48:37;8.13;;;7.43;;
12163;SDS011;6145;50.192;10.064;2023-05-07T03:51:04;10.10;;;7.67;;
12163;SDS011;6145;50.192;10.064;2023-05-07T03:53:31;10.57;;;9.57;;
12163;SDS011;6145;50.192;10.064;2023-05-07T03:56:04;9.33;;;8.43;;
12163;SDS011;6145;50.192;10.064;2023-05-07T03:58:31;10.77;;;9.67;;
12163;SDS011;6145;50.192;10.064;2023-05-07T04:00:58;8.73;;;7.83;;
12163;SDS011;6145;50.192;10.064;2023-05-07T05:35:13;10.03;;;9.03;;
12163;SDS011;6145;50.192;10.064;2023-05-07T05:37:42;11.07;;;9.03;;
12163;SDS011;6145;50.192;10.064;2023-05-07T05:40:09;10.20;;;9.10;;
12163;SDS011;6145;50.192;10.064;2023-05-07T05:42:37;11.80;;;8.80;;
12163;SDS011;6145;50.192;10.064;2023-05-07T05:45:04;10.77;;;9.77;;
12163;SDS011;6145;50.192;10.064;2023-05-07T05:47:31;10.93;;;9.83;;
12163;SDS011;6145;50.192;10.064;2023-05-07T05:49:58;10.43;;;9.20;;
12163;SDS011;6145;50.192;10.064;2023-05-07T05:52:26;10.53;;;9.33;;
12163;SDS011;6145;50.192;10.064;2023-05-07T05:54:53;10.57;;;9.20;;
12163;SDS011;6145;50.192;10.064;2023-05-07T05:57:20;10.53;;;8.27;;
12163;SDS011;6145;50.192;10.064;2023-05-07T05:59:47;11.07;;;9.23;;
12163;SDS011;6145;50.192;10.064;2023-05-07T06:02:14;10.53;;;9.53;;
12163;SDS011;6145;50.192;10.064;2023-05-07T06:04:41;10.47;;;8.70;;
12163;SDS011;6145;50.192;10.064;2023-05-07T06:07:08;10.43;;;9.43;;
12163;SDS011;6145;50.192;10.064;2023-05-07T06:09:36;9.73;;;8.40;;
12163;SDS011;6145;50.192;10.064;2023-05-07T06:12:03;9.47;;;8.57;;
12163;SDS011;6145;50.192;10.064;2023-05-07T06:14:30;9.67;;;8.77;;
12163;SDS011;6145;50.192;10.064;2023-05-07T06:16:57;10.10;;;9.10;;
12163;SDS011;6145;50.192;10.064;2023-05-07T06:19:24;10.97;;;9.13;;
12163;SDS011;6145;50.192;10.064;2023-05-07T06:21:53;9.47;;;8.57;;
12163;SDS011;6145;50.192;10.064;2023-05-07T06:24:21;10.43;;;9.43;;
12163;SDS011;6145;50.192;10.064;2023-05-07T06:26:50;10.13;;;9.13;;
12163;SDS011;6145;50.192;10.064;2023-05-07T06:29:17;9.93;;;8.93;;
12163;SDS011;6145;50.192;10.064;2023-05-07T06:31:44;10.07;;;8.93;;
12163;SDS011;6145;50.192;10.064;2023-05-07T06:34:11;10.17;;;8.87;;
12163;SDS011;6145;50.192;10.064;2023-05-07T06:36:39;9.93;;;8.93;;
12163;SDS011;6145;50.192;10.064;2023-05-07T06:39:06;9.73;;;8.77;;
12163;SDS011;6145;50.192;10.064;2023-05-07T06:41:33;9.63;;;8.73;;
12163;SDS011;6145;50.192;10.064;2023-05-07T06:44:01;8.90;;;7.93;;
12163;SDS011;6145;50.192;10.064;2023-05-07T06:46:28;9.77;;;8.77;;
12163;SDS011;6145;50.192;10.064;2023-05-07T06:48:57;10.87;;;8.90;;
12163;SDS011;6145;50.192;10.064;2023-05-07T06:51:24;8.77;;;7.90;;
12163;SDS011;6145;50.192;10.064;2023-05-07T06:53:52;9.80;;;8.80;;
12163;SDS011;6145;50.192;10.064;2023-05-07T06:56:18;10.67;;;9.00;;
12163;SDS011;6145;50.192;10.064;2023-05-07T07:01:25;10.23;;;9.03;;
12163;SDS011;6145;50.192;10.064;2023-05-07T07:03:52;10.47;;;9.20;;
12163;SDS011;6145;50.192;10.064;2023-05-07T07:06:19;8.40;;;7.60;;
12163;SDS011;6145;50.192;10.064;2023-05-07T07:08:46;9.37;;;8.47;;
12163;SDS011;6145;50.192;10.064;2023-05-07T07:11:13;10.30;;;9.30;;
12163;SDS011;6145;50.192;10.064;2023-05-07T07:13:40;8.40;;;7.60;;
12163;SDS011;6145;50.192;10.064;2023-05-07T07:16:11;11.33;;;8.80;;
12163;SDS011;6145;50.192;10.064;2023-05-07T07:18:40;8.90;;;7.57;;
12163;SDS011;6145;50.192;10.064;2023-05-07T07:21:07;9.37;;;8.33;;
12163;SDS011;6145;50.192;10.064;2023-05-07T07:23:34;9.23;;;8.33;;
12163;SDS011;6145;50.192;10.064;2023-05-07T07:26:01;8.17;;;7.40;;
12163;SDS011;6145;50.192;10.064;2023-05-07T07:28:28;10.50;;;9.33;;
12163;SDS011;6145;50.192;10.064;2023-05-07T07:30:55;10.00;;;9.07;;
12163;SDS011;6145;50.192;10.064;2023-05-07T07:33:22;9.00;;;7.70;;
12163;SDS011;6145;50.192;10.064;2023-05-07T07:35:50;8.47;;;7.50;;
12163;SDS011;6145;50.192;10.064;2023-05-07T07:38:17;7.90;;;7.10;;
12163;SDS011;6145;50.192;10.064;2023-05-07T07:40:44;8.00;;;7.20;;
12163;SDS011;6145;50.192;10.064;2023-05-07T07:43:11;8.03;;;7.23;;
12163;SDS011;6145;50.192;10.064;2023-05-07T07:45:38;8.27;;;7.37;;
12163;SDS011;6145;50.192;10.064;2023-05-07T07:48:05;8.80;;;7.50;;
12163;SDS011;6145;50.192;10.064;2023-05-07T07:50:31;8.00;;;7.20;;
12163;SDS011;6145;50.192;10.064;2023-05-07T07:53:00;8.83;;;7.90;;
12163;SDS011;6145;50.192;10.064;2023-05-07T07:55:27;8.37;;;7.37;;
12163;SDS011;6145;50.192;10.064;2023-05-07T07:57:56;9.47;;;7.93;;
12163;SDS011;6145;50.192;10.064;2023-05-07T08:00:23;7.87;;;7.27;;
12163;SDS011;6145;50.192;10.064;2023-05-07T08:02:50;8.17;;;7.47;;
12163;SDS011;6145;50.192;10.064;2023-05-07T08:05:16;7.40;;;6.73;;
12163;SDS011;6145;50.192;10.064;2023-05-07T08:07:45;8.87;;;7.87;;
12163;SDS011;6145;50.192;10.064;2023-05-07T08:10:18;7.87;;;6.53;;
12163;SDS011;6145;50.192;10.064;2023-05-07T08:12:46;8.60;;;7.27;;
12163;SDS011;6145;50.192;10.064;2023-05-07T08:15:13;8.30;;;7.37;;
12163;SDS011;6145;50.192;10.064;2023-05-07T08:17:43;9.10;;;8.30;;
12163;SDS011;6145;50.192;10.064;2023-05-07T08:20:11;8.23;;;7.50;;
12163;SDS011;6145;50.192;10.064;2023-05-07T08:22:38;8.33;;;7.43;;
12163;SDS011;6145;50.192;10.064;2023-05-07T08:25:05;8.23;;;6.90;;
12163;SDS011;6145;50.192;10.064;2023-05-07T08:27:34;8.27;;;7.47;;
12163;SDS011;6145;50.192;10.064;2023-05-07T08:30:01;8.93;;;8.03;;
12163;SDS011;6145;50.192;10.064;2023-05-07T08:32:30;8.30;;;7.60;;
12163;SDS011;6145;50.192;10.064;2023-05-07T08:34:59;7.10;;;6.47;;
12163;SDS011;6145;50.192;10.064;2023-05-07T08:37:26;8.50;;;7.60;;
12163;SDS011;6145;50.192;10.064;2023-05-07T08:39:53;9.40;;;7.40;;
12163;SDS011;6145;50.192;10.064;2023-05-07T08:42:23;7.63;;;6.97;;
12163;SDS011;6145;50.192;10.064;2023-05-07T08:44:52;7.57;;;6.93;;
12163;SDS011;6145;50.192;10.064;2023-05-07T08:47:24;7.77;;;6.83;;
12163;SDS011;6145;50.192;10.064;2023-05-07T08:49:56;8.30;;;7.50;;
12163;SDS011;6145;50.192;10.064;2023-05-07T08:52:23;7.97;;;7.17;;
12163;SDS011;6145;50.192;10.064;2023-05-07T08:54:50;9.53;;;7.80;;
12163;SDS011;6145;50.192;10.064;2023-05-07T08:57:17;8.27;;;7.47;;
12163;SDS011;6145;50.192;10.064;2023-05-07T08:59:45;7.20;;;6.60;;
12163;SDS011;6145;50.192;10.064;2023-05-07T09:02:13;8.30;;;6.70;;
12163;SDS011;6145;50.192;10.064;2023-05-07T09:04:41;7.67;;;6.97;;
12163;SDS011;6145;50.192;10.064;2023-05-07T09:07:08;9.17;;;8.27;;
12163;SDS011;6145;50.192;10.064;2023-05-07T09:09:36;8.10;;;7.30;;
12163;SDS011;6145;50.192;10.064;2023-05-07T09:12:03;7.70;;;6.97;;
12163;SDS011;6145;50.192;10.064;2023-05-07T09:14:31;7.00;;;6.30;;
12163;SDS011;6145;50.192;10.064;2023-05-07T09:16:57;7.00;;;6.30;;
12163;SDS011;6145;50.192;10.064;2023-05-07T09:19:26;6.97;;;6.30;;
12163;SDS011;6145;50.192;10.064;2023-05-07T09:21:59;8.23;;;6.50;;
12163;SDS011;6145;50.192;10.064;2023-05-07T09:24:27;7.00;;;6.30;;
12163;SDS011;6145;50.192;10.064;2023-05-07T09:26:58;6.30;;;5.70;;
12163;SDS011;6145;50.192;10.064;2023-05-07T09:29:26;6.63;;;6.03;;
12163;SDS011;6145;50.192;10.064;2023-05-07T09:31:53;7.27;;;6.57;;
12163;SDS011;6145;50.192;10.064;2023-05-07T09:34:20;7.60;;;6.77;;
12163;SDS011;6145;50.192;10.064;2023-05-07T09:36:49;7.90;;;7.20;;
12163;SDS011;6145;50.192;10.064;2023-05-07T09:39:16;7.47;;;6.77;;
12163;SDS011;6145;50.192;10.064;2023-05-07T09:41:43;6.93;;;6.33;;
12163;SDS011;6145;50.192;10.064;2023-05-07T09:44:10;7.17;;;6.57;;
12163;SDS011;6145;50.192;10.064;2023-05-07T09:46:38;6.67;;;6.07;;
12163;SDS011;6145;50.192;10.064;2023-05-07T09:49:08;7.30;;;6.70;;
12163;SDS011;6145;50.192;10.064;2023-05-07T09:51:42;7.00;;;6.40;;
12163;SDS011;6145;50.192;10.064;2023-05-07T09:54:15;7.07;;;6.47;;
12163;SDS011;6145;50.192;10.064;2023-05-07T09:56:42;8.60;;;7.00;;
12163;SDS011;6145;50.192;10.064;2023-05-07T09:59:10;6.80;;;6.10;;
12163;SDS011;6145;50.192;10.064;2023-05-07T10:01:40;7.50;;;6.37;;
12163;SDS011;6145;50.192;10.064;2023-05-07T10:04:08;7.33;;;6.73;;
12163;SDS011;6145;50.192;10.064;2023-05-07T10:06:35;7.43;;;6.72;;
12163;SDS011;6145;50.192;10.064;2023-05-07T10:09:02;7.68;;;7.00;;
12163;SDS011;6145;50.192;10.064;2023-05-07T10:11:34;6.50;;;6.00;;
12163;SDS011;6145;50.192;10.064;2023-05-07T10:14:02;6.95;;;5.90;;
12163;SDS011;6145;50.192;10.064;2023-05-07T10:16:31;6.18;;;5.60;;
12163;SDS011;6145;50.192;10.064;2023-05-07T10:19:02;7.03;;;6.43;;
12163;SDS011;6145;50.192;10.064;2023-05-07T10:21:30;7.15;;;5.88;;
12163;SDS011;6145;50.192;10.064;2023-05-07T10:24:03;6.05;;;5.50;;
12163;SDS011;6145;50.192;10.064;2023-05-07T10:26:34;6.50;;;5.90;;
12163;SDS011;6145;50.192;10.064;2023-05-07T10:29:03;6.07;;;5.53;;
12163;SDS011;6145;50.192;10.064;2023-05-07T10:34:24;6.35;;;5.75;;
12163;SDS011;6145;50.192;10.064;2023-05-07T10:36:55;6.97;;;5.93;;
12163;SDS011;6145;50.192;10.064;2023-05-07T10:39:23;6.60;;;6.00;;
12163;SDS011;6145;50.192;10.064;2023-05-07T10:41:52;7.10;;;6.47;;
12163;SDS011;6145;50.192;10.064;2023-05-07T10:44:25;6.13;;;5.57;;
12163;SDS011;6145;50.192;10.064;2023-05-07T10:47:09;6.07;;;5.47;;
12163;SDS011;6145;50.192;10.064;2023-05-07T10:49:38;6.43;;;5.35;;
12163;SDS011;6145;50.192;10.064;2023-05-07T10:52:43;5.30;;;4.90;;
12163;SDS011;6145;50.192;10.064;2023-05-07T10:55:19;6.55;;;5.30;;
12163;SDS011;6145;50.192;10.064;2023-05-07T10:57:51;5.60;;;5.00;;
12163;SDS011;6145;50.192;10.064;2023-05-07T11:03:09;5.30;;;4.80;;
12163;SDS011;6145;50.192;10.064;2023-05-07T11:05:37;5.53;;;4.97;;
12163;SDS011;6145;50.192;10.064;2023-05-07T11:08:04;4.80;;;4.40;;
12163;SDS011;6145;50.192;10.064;2023-05-07T11:13:16;4.38;;;3.95;;
12163;SDS011;6145;50.192;10.064;2023-05-07T11:15:44;4.38;;;3.97;;
12163;SDS011;6145;50.192;10.064;2023-05-07T11:18:12;6.18;;;4.47;;
12163;SDS011;6145;50.192;10.064;2023-05-07T11:20:46;6.30;;;4.45;;
12163;SDS011;6145;50.192;10.064;2023-05-07T11:26:41;4.43;;;4.03;;
12163;SDS011;6145;50.192;10.064;2023-05-07T11:29:14;4.20;;;3.90;;
12163;SDS011;6145;50.192;10.064;2023-05-07T11:31:42;4.55;;;4.13;;
12163;SDS011;6145;50.192;10.064;2023-05-07T11:34:10;4.63;;;4.22;;
12163;SDS011;6145;50.192;10.064;2023-05-07T11:36:45;5.15;;;4.75;;
12163;SDS011;6145;50.192;10.064;2023-05-07T11:39:27;4.97;;;4.57;;
12163;SDS011;6145;50.192;10.064;2023-05-07T11:41:58;4.10;;;3.72;;
12163;SDS011;6145;50.192;10.064;2023-05-07T11:44:27;3.85;;;3.55;;
12163;SDS011;6145;50.192;10.064;2023-05-07T11:47:09;4.25;;;3.95;;
12163;SDS011;6145;50.192;10.064;2023-05-07T11:49:36;4.28;;;3.88;;
12163;SDS011;6145;50.192;10.064;2023-05-07T11:52:05;4.55;;;4.15;;
12163;SDS011;6145;50.192;10.064;2023-05-07T11:54:34;4.85;;;3.72;;
12163;SDS011;6145;50.192;10.064;2023-05-07T11:57:03;3.78;;;3.47;;
12163;SDS011;6145;50.192;10.064;2023-05-07T11:59:32;4.78;;;3.63;;
12163;SDS011;6145;50.192;10.064;2023-05-07T12:02:05;3.83;;;3.53;;
12163;SDS011;6145;50.192;10.064;2023-05-07T12:04:34;5.05;;;4.13;;
12163;SDS011;6145;50.192;10.064;2023-05-07T12:07:01;4.75;;;4.35;;
12163;SDS011;6145;50.192;10.064;2023-05-07T12:09:28;4.28;;;3.83;;
12163;SDS011;6145;50.192;10.064;2023-05-07T12:11:56;4.40;;;4.00;;
12163;SDS011;6145;50.192;10.064;2023-05-07T12:14:26;4.32;;;4.00;;
12163;SDS011;6145;50.192;10.064;2023-05-07T12:16:55;3.65;;;3.35;;
12163;SDS011;6145;50.192;10.064;2023-05-07T12:19:22;4.20;;;3.90;;
12163;SDS011;6145;50.192;10.064;2023-05-07T12:21:49;4.55;;;3.58;;
12163;SDS011;6145;50.192;10.064;2023-05-07T12:24:19;4.00;;;3.50;;
12163;SDS011;6145;50.192;10.064;2023-05-07T12:26:47;3.88;;;3.58;;
12163;SDS011;6145;50.192;10.064;2023-05-07T12:29:14;3.60;;;3.30;;
12163;SDS011;6145;50.192;10.064;2023-05-07T12:31:43;3.65;;;3.35;;
12163;SDS011;6145;50.192;10.064;2023-05-07T12:34:11;3.10;;;2.83;;
12163;SDS011;6145;50.192;10.064;2023-05-07T12:36:38;4.13;;;3.72;;
12163;SDS011;6145;50.192;10.064;2023-05-07T12:39:06;3.50;;;3.20;;
12163;SDS011;6145;50.192;10.064;2023-05-07T12:41:35;3.63;;;3.33;;
12163;SDS011;6145;50.192;10.064;2023-05-07T12:44:18;3.78;;;3.47;;
12163;SDS011;6145;50.192;10.064;2023-05-07T12:46:46;3.58;;;3.28;;
12163;SDS011;6145;50.192;10.064;2023-05-07T12:49:16;3.53;;;3.22;;
12163;SDS011;6145;50.192;10.064;2023-05-07T12:51:43;4.47;;;3.25;;
12163;SDS011;6145;50.192;10.064;2023-05-07T12:54:12;3.70;;;3.10;;
12163;SDS011;6145;50.192;10.064;2023-05-07T12:56:41;3.33;;;2.90;;
12163;SDS011;6145;50.192;10.064;2023-05-07T12:59:08;3.47;;;3.08;;
12163;SDS011;6145;50.192;10.064;2023-05-07T13:01:35;4.82;;;2.80;;
12163;SDS011;6145;50.192;10.064;2023-05-07T13:04:02;3.38;;;3.05;;
12163;SDS011;6145;50.192;10.064;2023-05-07T13:06:36;3.58;;;3.28;;
12163;SDS011;6145;50.192;10.064;2023-05-07T13:09:05;3.42;;;3.13;;
12163;SDS011;6145;50.192;10.064;2023-05-07T13:11:33;3.65;;;3.10;;
12163;SDS011;6145;50.192;10.064;2023-05-07T13:14:03;3.80;;;2.80;;
12163;SDS011;6145;50.192;10.064;2023-05-07T13:16:30;2.80;;;2.60;;
12163;SDS011;6145;50.192;10.064;2023-05-07T13:18:57;2.92;;;2.72;;
12163;SDS011;6145;50.192;10.064;2023-05-07T13:21:25;3.00;;;2.75;;
12163;SDS011;6145;50.192;10.064;2023-05-07T13:23:54;2.70;;;2.50;;
12163;SDS011;6145;50.192;10.064;2023-05-07T13:26:21;2.85;;;2.33;;
12163;SDS011;6145;50.192;10.064;2023-05-07T13:28:48;2.78;;;2.45;;
12163;SDS011;6145;50.192;10.064;2023-05-07T13:31:16;2.63;;;2.33;;
12163;SDS011;6145;50.192;10.064;2023-05-07T13:33:43;2.00;;;1.90;;
12163;SDS011;6145;50.192;10.064;2023-05-07T13:36:12;2.60;;;2.17;;
12163;SDS011;6145;50.192;10.064;2023-05-07T13:38:39;2.83;;;2.63;;
12163;SDS011;6145;50.192;10.064;2023-05-07T13:41:08;2.95;;;2.45;;
12163;SDS011;6145;50.192;10.064;2023-05-07T13:43:37;2.63;;;2.42;;
12163;SDS011;6145;50.192;10.064;2023-05-07T13:46:04;2.60;;;2.40;;
12163;SDS011;6145;50.192;10.064;2023-05-07T13:48:31;2.50;;;2.13;;
12163;SDS011;6145;50.192;10.064;2023-05-07T13:50:58;2.50;;;2.30;;
12163;SDS011;6145;50.192;10.064;2023-05-07T13:53:25;3.30;;;2.40;;
12163;SDS011;6145;50.192;10.064;2023-05-07T13:55:52;2.50;;;2.30;;
12163;SDS011;6145;50.192;10.064;2023-05-07T13:58:28;2.72;;;2.53;;
12163;SDS011;6145;50.192;10.064;2023-05-07T14:00:55;2.78;;;2.53;;
12163;SDS011;6145;50.192;10.064;2023-05-07T14:03:22;3.13;;;2.70;;
12163;SDS011;6145;50.192;10.064;2023-05-07T14:05:49;2.95;;;2.65;;
12163;SDS011;6145;50.192;10.064;2023-05-07T14:08:16;2.70;;;2.50;;
12163;SDS011;6145;50.192;10.064;2023-05-07T14:10:45;2.90;;;2.70;;
12163;SDS011;6145;50.192;10.064;2023-05-07T14:13:12;3.28;;;2.95;;
12163;SDS011;6145;50.192;10.064;2023-05-07T14:15:40;2.92;;;2.67;;
12163;SDS011;6145;50.192;10.064;2023-05-07T14:18:11;3.40;;;3.10;;
12163;SDS011;6145;50.192;10.064;2023-05-07T14:20:38;3.30;;;3.00;;
12163;SDS011;6145;50.192;10.064;2023-05-07T14:23:05;3.30;;;3.00;;
12163;SDS011;6145;50.192;10.064;2023-05-07T14:25:40;3.20;;;2.67;;
12163;SDS011;6145;50.192;10.064;2023-05-07T14:28:08;2.80;;;2.60;;
12163;SDS011;6145;50.192;10.064;2023-05-07T14:30:35;4.47;;;3.17;;
12163;SDS011;6145;50.192;10.064;2023-05-07T14:33:04;4.15;;;2.75;;
12163;SDS011;6145;50.192;10.064;2023-05-07T14:35:31;3.58;;;3.25;;
12163;SDS011;6145;50.192;10.064;2023-05-07T14:37:58;3.08;;;2.78;;
12163;SDS011;6145;50.192;10.064;2023-05-07T14:40:27;3.78;;;3.10;;
12163;SDS011;6145;50.192;10.064;2023-05-07T14:42:54;3.08;;;2.88;;
12163;SDS011;6145;50.192;10.064;2023-05-07T14:45:22;4.15;;;2.78;;
12163;SDS011;6145;50.192;10.064;2023-05-07T14:47:49;3.15;;;2.53;;
12163;SDS011;6145;50.192;10.064;2023-05-07T14:50:17;3.03;;;2.72;;
12163;SDS011;6145;50.192;10.064;2023-05-07T14:52:44;3.42;;;2.50;;
12163;SDS011;6145;50.192;10.064;2023-05-07T14:55:11;4.00;;;2.67;;
12163;SDS011;6145;50.192;10.064;2023-05-07T14:57:38;2.85;;;2.65;;
12163;SDS011;6145;50.192;10.064;2023-05-07T15:00:06;2.90;;;2.70;;
12163;SDS011;6145;50.192;10.064;2023-05-07T15:02:34;3.15;;;2.83;;
12163;SDS011;6145;50.192;10.064;2023-05-07T15:05:03;2.70;;;2.50;;
12163;SDS011;6145;50.192;10.064;2023-05-07T15:07:34;2.97;;;2.78;;
12163;SDS011;6145;50.192;10.064;2023-05-07T15:10:01;3.80;;;3.10;;
12163;SDS011;6145;50.192;10.064;2023-05-07T15:12:28;2.95;;;2.75;;
12163;SDS011;6145;50.192;10.064;2023-05-07T15:14:55;3.17;;;2.97;;
12163;SDS011;6145;50.192;10.064;2023-05-07T15:17:23;2.85;;;2.65;;
12163;SDS011;6145;50.192;10.064;2023-05-07T15:19:50;3.38;;;2.67;;
12163;SDS011;6145;50.192;10.064;2023-05-07T15:22:17;2.88;;;2.58;;
12163;SDS011;6145;50.192;10.064;2023-05-07T15:24:45;3.42;;;3.13;;
12163;SDS011;6145;50.192;10.064;2023-05-07T15:27:15;3.28;;;2.97;;
12163;SDS011;6145;50.192;10.064;2023-05-07T15:29:42;2.78;;;2.58;;
12163;SDS011;6145;50.192;10.064;2023-05-07T15:32:09;2.78;;;2.58;;
12163;SDS011;6145;50.192;10.064;2023-05-07T15:34:36;3.38;;;3.03;;
12163;SDS011;6145;50.192;10.064;2023-05-07T15:37:03;3.03;;;2.50;;
12163;SDS011;6145;50.192;10.064;2023-05-07T15:39:30;3.00;;;2.78;;
12163;SDS011;6145;50.192;10.064;2023-05-07T15:41:59;3.45;;;2.83;;
12163;SDS011;6145;50.192;10.064;2023-05-07T15:44:27;3.15;;;2.83;;
12163;SDS011;6145;50.192;10.064;2023-05-07T15:46:57;3.03;;;2.75;;
12163;SDS011;6145;50.192;10.064;2023-05-07T15:49:25;2.65;;;2.45;;
12163;SDS011;6145;50.192;10.064;2023-05-07T15:51:54;4.00;;;2.58;;
12163;SDS011;6145;50.192;10.064;2023-05-07T15:54:22;2.85;;;2.65;;
12163;SDS011;6145;50.192;10.064;2023-05-07T15:56:49;3.00;;;2.80;;
12163;SDS011;6145;50.192;10.064;2023-05-07T15:59:17;2.83;;;2.63;;
12163;SDS011;6145;50.192;10.064;2023-05-07T16:01:47;3.63;;;3.05;;
12163;SDS011;6145;50.192;10.064;2023-05-07T16:04:16;3.05;;;2.80;;
12163;SDS011;6145;50.192;10.064;2023-05-07T16:06:43;3.20;;;2.90;;
12163;SDS011;6145;50.192;10.064;2023-05-07T16:09:11;3.10;;;2.90;;
12163;SDS011;6145;50.192;10.064;2023-05-07T16:11:38;3.90;;;2.97;;
12163;SDS011;6145;50.192;10.064;2023-05-07T16:14:05;3.15;;;2.85;;
12163;SDS011;6145;50.192;10.064;2023-05-07T16:16:34;3.05;;;2.83;;
12163;SDS011;6145;50.192;10.064;2023-05-07T16:19:05;2.83;;;2.30;;
12163;SDS011;6145;50.192;10.064;2023-05-07T16:21:32;3.33;;;2.90;;
12163;SDS011;6145;50.192;10.064;2023-05-07T16:23:59;2.90;;;2.67;;
12163;SDS011;6145;50.192;10.064;2023-05-07T16:26:26;2.40;;;2.20;;
12163;SDS011;6145;50.192;10.064;2023-05-07T16:28:53;3.05;;;2.67;;
12163;SDS011;6145;50.192;10.064;2023-05-07T16:31:20;3.22;;;2.83;;
12163;SDS011;6145;50.192;10.064;2023-05-07T16:33:48;3.95;;;2.75;;
12163;SDS011;6145;50.192;10.064;2023-05-07T16:36:15;3.80;;;2.63;;
12163;SDS011;6145;50.192;10.064;2023-05-07T16:38:43;3.28;;;2.90;;